createdAt,value
2023-07-05T00:01:36.343Z,10.30
2023-07-05T00:04:04.687Z,10.90
2023-07-05T00:06:32.761Z,10.90
2023-07-05T00:09:00.777Z,10.60
2023-07-05T00:11:29.058Z,10.10
2023-07-05T00:13:57.179Z,11.00
2023-07-05T00:16:25.396Z,11.00
2023-07-05T00:18:53.565Z,13.40
2023-07-05T00:21:21.688Z,13.60
2023-07-05T00:23:49.743Z,11.70
2023-07-05T00:26:17.738Z,10.90
2023-07-05T00:28:55.988Z,10.90
2023-07-05T00:31:25.270Z,10.80
2023-07-05T00:33:53.374Z,9.80
2023-07-05T00:36:21.327Z,9.30
2023-07-05T00:38:49.301Z,9.40
2023-07-05T00:41:18.533Z,9.70
2023-07-05T00:43:50.177Z,9.50
2023-07-05T00:46:32.015Z,9.00
2023-07-05T00:49:07.138Z,8.00
2023-07-05T00:51:59.263Z,8.80
2023-07-05T00:54:33.143Z,9.00
2023-07-05T00:57:06.545Z,8.60
2023-07-05T00:59:44.180Z,8.20
2023-07-05T01:02:12.579Z,8.80
2023-07-05T01:04:41.744Z,9.10
2023-07-05T01:07:09.733Z,8.70
2023-07-05T01:09:38.057Z,8.70
2023-07-05T01:12:23.796Z,8.50
2023-07-05T01:15:00.975Z,8.60
2023-07-05T01:17:41.283Z,8.10
2023-07-05T01:20:52.026Z,8.70
2023-07-05T01:23:41.762Z,8.80
2023-07-05T01:26:31.441Z,9.00
2023-07-05T01:29:20.156Z,8.60
2023-07-05T01:32:14.687Z,9.40
2023-07-05T01:35:18.436Z,8.20
2023-07-05T01:37:51.053Z,9.00
2023-07-05T01:40:22.704Z,9.50
2023-07-05T01:42:55.213Z,11.20
2023-07-05T01:45:57.249Z,10.10
2023-07-05T01:48:35.797Z,10.40
2023-07-05T01:51:24.618Z,10.40
2023-07-05T01:54:05.496Z,10.10
2023-07-05T01:56:49.625Z,12.40
2023-07-05T01:59:23.579Z,10.30
2023-07-05T02:01:56.621Z,10.90
2023-07-05T02:04:27.601Z,10.50
2023-07-05T02:06:55.696Z,10.40
2023-07-05T02:09:23.897Z,10.60
2023-07-05T02:11:51.907Z,10.90
2023-07-05T02:14:21.889Z,11.60
2023-07-05T02:16:50.158Z,11.60
2023-07-05T02:19:18.997Z,11.50
2023-07-05T02:21:54.332Z,11.00
2023-07-05T02:24:22.344Z,12.10
2023-07-05T02:26:54.965Z,13.70
2023-07-05T02:29:23.742Z,12.50
2023-07-05T02:31:51.830Z,13.50
2023-07-05T02:34:20.803Z,12.20
2023-07-05T02:36:48.880Z,13.80
2023-07-05T02:39:17.477Z,13.20
2023-07-05T02:41:45.698Z,13.80
2023-07-05T02:44:13.657Z,13.40
2023-07-05T02:46:42.113Z,12.60
2023-07-05T02:49:10.330Z,12.40
2023-07-05T02:51:38.453Z,12.20
2023-07-05T02:54:16.670Z,11.90
2023-07-05T02:56:44.674Z,11.20
2023-07-05T02:59:12.493Z,12.10
2023-07-05T03:01:40.668Z,11.90
2023-07-05T03:04:08.770Z,11.80
2023-07-05T03:06:37.870Z,11.00
2023-07-05T03:09:07.356Z,10.80
2023-07-05T03:11:35.238Z,9.80
2023-07-05T03:14:04.614Z,11.30
2023-07-05T03:16:36.700Z,11.40
2023-07-05T03:19:04.655Z,11.30
2023-07-05T03:21:32.748Z,10.60
2023-07-05T03:24:00.763Z,12.40
2023-07-05T03:26:28.799Z,13.00
2023-07-05T03:28:56.990Z,13.00
2023-07-05T03:31:25.900Z,13.80
2023-07-05T03:33:54.818Z,12.50
2023-07-05T03:36:23.515Z,16.50
2023-07-05T03:38:52.801Z,16.90
2023-07-05T03:41:25.607Z,15.10
2023-07-05T03:43:57.353Z,13.00
2023-07-05T03:46:25.708Z,11.80
2023-07-05T03:48:53.791Z,10.30
2023-07-05T03:51:23.619Z,9.90
2023-07-05T03:53:53.557Z,10.00
2023-07-05T03:56:22.758Z,10.40
2023-07-05T03:58:50.761Z,10.40
2023-07-05T04:01:22.278Z,9.00
2023-07-05T04:03:55.070Z,9.90
2023-07-05T04:06:25.386Z,9.20
2023-07-05T04:08:53.416Z,9.30
2023-07-05T04:11:21.752Z,10.40
2023-07-05T04:13:51.752Z,9.30
2023-07-05T04:16:22.292Z,8.80
2023-07-05T04:18:53.068Z,10.00
2023-07-05T04:21:22.218Z,9.50
2023-07-05T04:23:50.329Z,12.50
2023-07-05T04:26:21.227Z,11.30
2023-07-05T04:28:50.240Z,10.90
2023-07-05T04:31:30.535Z,12.60
2023-07-05T04:33:59.947Z,16.90
2023-07-05T04:36:30.729Z,18.80
2023-07-05T04:39:00.124Z,19.50
2023-07-05T04:41:28.892Z,15.80
2023-07-05T04:43:57.431Z,14.70
2023-07-05T04:46:25.749Z,13.00
2023-07-05T04:48:54.056Z,13.20
2023-07-05T04:51:22.559Z,11.30
2023-07-05T04:53:50.525Z,10.60
2023-07-05T04:56:18.486Z,9.90
2023-07-05T04:58:49.811Z,10.40
2023-07-05T05:01:23.799Z,10.10
2023-07-05T05:03:51.805Z,13.00
2023-07-05T05:06:19.759Z,11.00
2023-07-05T05:08:47.648Z,10.60
2023-07-05T05:11:15.973Z,9.40
2023-07-05T05:13:44.005Z,9.10
2023-07-05T05:16:12.343Z,10.40
2023-07-05T05:18:40.503Z,9.40
2023-07-05T05:21:08.463Z,9.20
2023-07-05T05:23:36.954Z,9.00
2023-07-05T05:26:05.523Z,9.50
2023-07-05T05:28:33.645Z,8.90
2023-07-05T05:31:12.278Z,10.10
2023-07-05T05:33:40.873Z,9.40
2023-07-05T05:36:08.713Z,9.50
2023-07-05T05:38:37.046Z,8.60
2023-07-05T05:41:12.509Z,8.70
2023-07-05T05:43:41.032Z,8.50
2023-07-05T05:46:10.695Z,8.10
2023-07-05T05:48:40.508Z,8.50
2023-07-05T05:51:08.482Z,7.50
2023-07-05T05:53:36.417Z,8.20
2023-07-05T05:56:04.722Z,7.40
2023-07-05T05:58:32.827Z,8.00
2023-07-05T06:01:05.151Z,7.80
2023-07-05T06:03:33.388Z,8.90
2023-07-05T06:06:15.117Z,7.20
2023-07-05T06:08:51.002Z,7.60
2023-07-05T06:11:24.195Z,8.20
2023-07-05T06:13:52.288Z,7.50
2023-07-05T06:16:20.619Z,6.30
2023-07-05T06:18:49.054Z,6.40
2023-07-05T06:21:16.995Z,7.60
2023-07-05T06:23:44.924Z,6.90
2023-07-05T06:26:12.801Z,7.40
2023-07-05T06:28:40.872Z,6.00
2023-07-05T06:31:11.809Z,6.00
2023-07-05T06:33:43.311Z,7.40
2023-07-05T06:36:11.826Z,6.50
2023-07-05T06:38:46.469Z,6.30
2023-07-05T06:41:21.387Z,6.70
2023-07-05T06:43:55.319Z,7.20
2023-07-05T06:48:55.391Z,5.30
2023-07-05T06:51:25.609Z,5.50
2023-07-05T06:53:53.459Z,5.40
2023-07-05T06:56:21.374Z,5.70
2023-07-05T06:58:49.511Z,5.60
2023-07-05T07:01:18.251Z,7.00
2023-07-05T07:03:47.599Z,5.90
2023-07-05T07:06:15.701Z,5.50
2023-07-05T07:08:43.929Z,5.40
2023-07-05T07:11:15.449Z,4.30
2023-07-05T07:13:43.550Z,4.80
2023-07-05T07:16:22.111Z,5.30
2023-07-05T07:18:51.933Z,3.70
2023-07-05T07:21:20.624Z,4.70
2023-07-05T07:23:49.755Z,5.30
2023-07-05T07:26:21.800Z,5.40
2023-07-05T07:28:52.846Z,5.20
2023-07-05T07:31:33.114Z,5.40
2023-07-05T07:34:03.474Z,6.00
2023-07-05T07:36:38.181Z,4.60
2023-07-05T07:39:06.637Z,4.20
2023-07-05T07:41:39.489Z,4.70
2023-07-05T07:44:10.200Z,4.40
2023-07-05T07:46:40.554Z,5.00
2023-07-05T07:49:10.568Z,3.80
2023-07-05T07:51:44.626Z,4.00
2023-07-05T07:54:20.849Z,4.00
2023-07-05T07:56:49.262Z,4.00
2023-07-05T07:59:17.716Z,4.10
2023-07-05T08:01:49.918Z,3.90
2023-07-05T08:04:21.731Z,4.40
2023-07-05T08:06:54.804Z,4.20
2023-07-05T08:09:31.873Z,4.70
2023-07-05T08:12:03.092Z,5.60
2023-07-05T08:14:36.539Z,4.90
2023-07-05T08:17:08.912Z,5.50
2023-07-05T08:19:45.563Z,4.90
2023-07-05T08:24:57.157Z,4.90
2023-07-05T08:27:31.894Z,5.50
2023-07-05T08:30:04.493Z,5.70
2023-07-05T08:35:14.571Z,4.90
2023-07-05T08:37:54.191Z,5.00
2023-07-05T08:40:33.188Z,5.40
2023-07-05T08:43:07.840Z,5.20
2023-07-05T08:45:43.950Z,4.30
2023-07-05T08:48:16.576Z,4.70
2023-07-05T08:51:08.527Z,4.70
2023-07-05T08:53:56.991Z,4.30
2023-07-05T08:56:36.242Z,5.40
2023-07-05T08:59:31.569Z,5.00
2023-07-05T09:02:05.362Z,5.50
2023-07-05T09:04:37.205Z,5.60
2023-07-05T09:07:22.674Z,5.90
2023-07-05T09:10:17.888Z,5.90
2023-07-05T09:12:59.390Z,23.30
2023-07-05T09:16:23.729Z,6.50
2023-07-05T09:19:14.572Z,5.90
2023-07-05T09:21:56.532Z,6.00
2023-07-05T09:24:43.583Z,6.10
2023-07-05T09:27:43.893Z,6.60
2023-07-05T09:30:23.649Z,6.10
2023-07-05T09:33:28.489Z,5.80
2023-07-05T09:36:06.802Z,7.50
2023-07-05T09:38:45.092Z,7.80
2023-07-05T09:41:25.453Z,6.90
2023-07-05T09:43:59.127Z,6.90
2023-07-05T09:46:33.753Z,7.00
2023-07-05T09:49:13.207Z,6.50
2023-07-05T09:51:48.904Z,6.70
2023-07-05T09:54:33.838Z,8.00
2023-07-05T09:57:09.380Z,7.10
2023-07-05T09:59:44.713Z,10.50
2023-07-05T10:02:26.806Z,8.90
2023-07-05T10:05:16.441Z,7.40
2023-07-05T10:08:06.173Z,8.10
2023-07-05T10:10:43.330Z,8.00
2023-07-05T10:13:24.930Z,7.70
2023-07-05T10:16:09.822Z,7.80
2023-07-05T10:18:43.495Z,8.40
2023-07-05T10:21:23.752Z,8.00
2023-07-05T10:23:56.497Z,8.50
2023-07-05T10:26:26.597Z,7.40
2023-07-05T10:29:13.754Z,8.10
2023-07-05T10:31:56.366Z,9.50
2023-07-05T10:34:29.689Z,10.80
2023-07-05T10:37:50.336Z,9.30
2023-07-05T10:40:28.719Z,10.40
2023-07-05T10:43:05.420Z,13.00
2023-07-05T10:45:58.234Z,11.70
2023-07-05T10:48:47.147Z,11.10
2023-07-05T10:51:26.510Z,10.30
2023-07-05T10:54:07.109Z,12.40
2023-07-05T10:56:43.255Z,13.80
2023-07-05T10:59:37.230Z,14.60
2023-07-05T11:02:43.527Z,12.40
2023-07-05T11:05:44.504Z,13.90
2023-07-05T11:08:41.330Z,12.30
2023-07-05T11:11:31.256Z,12.80
2023-07-05T11:14:05.899Z,14.20
2023-07-05T11:16:42.773Z,13.30
2023-07-05T11:19:33.723Z,14.20
2023-07-05T11:22:05.531Z,13.70
2023-07-05T11:24:49.440Z,13.10
2023-07-05T11:27:31.252Z,13.80
2023-07-05T11:30:50.244Z,13.30
2023-07-05T11:33:26.931Z,14.10
2023-07-05T11:36:29.142Z,14.80
2023-07-05T11:39:42.089Z,16.10
2023-07-05T11:42:17.238Z,14.40
2023-07-05T11:45:12.181Z,13.70
2023-07-05T11:47:57.573Z,15.40
2023-07-05T11:50:31.264Z,15.90
2023-07-05T11:53:13.173Z,14.70
2023-07-05T11:55:49.460Z,14.30
2023-07-05T11:58:30.502Z,15.20
2023-07-05T12:01:17.288Z,15.00
2023-07-05T12:03:59.342Z,14.90
2023-07-05T12:06:46.153Z,13.70
2023-07-05T12:09:34.281Z,15.20
2023-07-05T12:12:08.797Z,14.70
2023-07-05T12:17:20.562Z,13.70
2023-07-05T12:20:00.708Z,15.00
2023-07-05T12:22:47.233Z,15.10
2023-07-05T12:25:23.944Z,15.50
2023-07-05T12:28:08.796Z,15.40
2023-07-05T12:30:46.011Z,14.40
2023-07-05T12:33:39.615Z,15.20
2023-07-05T12:36:45.553Z,14.80
2023-07-05T12:39:21.210Z,15.40
2023-07-05T12:42:07.993Z,15.00
2023-07-05T12:44:56.659Z,15.60
2023-07-05T12:47:33.668Z,15.40
2023-07-05T12:50:17.920Z,17.00
2023-07-05T12:53:07.320Z,14.40
2023-07-05T12:56:15.020Z,15.70
2023-07-05T12:59:01.349Z,15.70
2023-07-05T13:17:15.650Z,13.20
2023-07-05T13:21:45.841Z,14.40
2023-07-05T13:29:26.064Z,13.10
2023-07-05T13:32:07.405Z,14.30
2023-07-05T13:34:48.963Z,14.30
2023-07-05T13:37:43.218Z,14.60
2023-07-05T13:40:38.118Z,14.20
2023-07-05T13:43:11.684Z,13.60
2023-07-05T13:46:03.379Z,12.40
2023-07-05T13:48:46.395Z,12.60
2023-07-05T13:51:33.681Z,11.70
2023-07-05T13:54:15.803Z,11.80
2023-07-05T13:56:52.060Z,11.90
2023-07-05T13:59:26.354Z,12.00
2023-07-05T14:02:07.396Z,12.80
2023-07-05T14:04:41.676Z,12.10
2023-07-05T14:07:22.900Z,11.70
2023-07-05T14:09:54.271Z,11.50
2023-07-05T14:12:47.840Z,12.80
2023-07-05T14:15:40.114Z,13.10
2023-07-05T14:18:20.530Z,12.60
2023-07-05T14:21:03.648Z,10.60
2023-07-05T14:23:37.419Z,13.70
2023-07-05T14:26:16.927Z,13.00
2023-07-05T14:28:58.778Z,13.00
2023-07-05T14:31:39.690Z,13.80
2023-07-05T14:34:13.909Z,14.90
2023-07-05T14:37:04.688Z,14.50
2023-07-05T14:39:37.224Z,14.40
2023-07-05T14:42:20.464Z,13.20
2023-07-05T14:45:10.152Z,14.10
2023-07-05T14:47:38.830Z,13.10
2023-07-05T14:50:09.638Z,13.50
2023-07-05T14:52:38.145Z,13.90
2023-07-05T15:05:26.854Z,14.50
2023-07-05T15:07:54.887Z,13.90
2023-07-05T15:10:24.673Z,13.10
2023-07-05T15:12:54.096Z,13.10
2023-07-05T15:15:33.912Z,13.70
2023-07-05T15:18:01.949Z,14.60
2023-07-05T15:20:30.563Z,14.90
2023-07-05T15:22:58.908Z,14.90
2023-07-05T15:25:27.189Z,15.30
2023-07-05T15:27:57.826Z,14.60
2023-07-05T15:30:27.355Z,13.70
2023-07-05T15:32:55.797Z,13.40
2023-07-05T15:35:26.813Z,13.80
2023-07-05T15:38:01.408Z,14.10
2023-07-05T15:40:29.443Z,15.00
2023-07-05T15:42:57.587Z,14.80
2023-07-05T15:45:26.713Z,14.00
2023-07-05T15:47:56.626Z,13.30
2023-07-05T15:50:31.215Z,14.70
2023-07-05T15:53:00.109Z,12.80
2023-07-05T15:55:48.243Z,14.30
2023-07-05T15:58:21.135Z,13.30
2023-07-05T16:00:50.126Z,12.50
2023-07-05T16:03:22.611Z,13.50
2023-07-05T16:05:51.809Z,13.70
2023-07-05T16:08:19.981Z,13.20
2023-07-05T16:10:48.134Z,12.40
2023-07-05T16:13:16.410Z,15.70
2023-07-05T16:15:55.164Z,13.60
2023-07-05T16:18:23.418Z,13.30
2023-07-05T16:20:57.185Z,13.20
2023-07-05T16:23:26.825Z,13.60
2023-07-05T16:25:57.658Z,12.30
2023-07-05T16:28:26.004Z,13.20
2023-07-05T16:30:54.226Z,14.90
2023-07-05T16:33:29.373Z,13.60
2023-07-05T16:35:58.799Z,12.40
2023-07-05T16:38:27.588Z,13.30
2023-07-05T16:40:57.499Z,14.30
2023-07-05T16:43:27.348Z,12.40
2023-07-05T16:45:59.159Z,12.80
2023-07-05T16:48:29.309Z,13.90
2023-07-05T16:51:04.214Z,13.20
2023-07-05T16:53:39.362Z,13.70
2023-07-05T16:56:10.039Z,14.00
2023-07-05T16:58:38.756Z,12.40
2023-07-05T17:01:09.672Z,13.10
2023-07-05T17:03:40.884Z,12.20
2023-07-05T17:06:11.656Z,12.90
2023-07-05T17:08:45.077Z,14.80
2023-07-05T17:11:13.956Z,13.40
2023-07-05T17:13:44.960Z,12.30
2023-07-05T17:16:14.865Z,12.90
2023-07-05T17:18:43.355Z,13.30
2023-07-05T17:21:15.020Z,13.20
2023-07-05T17:23:43.563Z,15.70
2023-07-05T17:26:13.990Z,12.70
2023-07-05T17:28:49.348Z,13.10
2023-07-05T17:31:24.863Z,12.60
2023-07-05T17:33:55.215Z,11.40
2023-07-05T17:36:25.920Z,11.80
2023-07-05T17:38:54.890Z,12.60
2023-07-05T17:41:26.218Z,12.80
2023-07-05T17:43:54.656Z,12.40
2023-07-05T17:46:26.024Z,12.50
2023-07-05T17:48:56.766Z,9.60
2023-07-05T17:51:27.502Z,9.30
2023-07-05T17:54:12.280Z,9.00
2023-07-05T17:56:41.768Z,9.60
2023-07-05T17:59:10.773Z,8.90
2023-07-05T18:01:39.354Z,8.60
2023-07-05T18:04:07.264Z,7.50
2023-07-05T18:06:35.399Z,9.90
2023-07-05T18:09:08.954Z,9.10
2023-07-05T18:11:36.997Z,9.50
2023-07-05T18:14:05.127Z,8.50
2023-07-05T18:16:40.894Z,10.40
2023-07-05T18:19:09.906Z,8.90
2023-07-05T18:21:40.117Z,9.50
2023-07-05T18:24:11.717Z,9.60
2023-07-05T18:26:41.120Z,9.90
2023-07-05T18:29:09.137Z,9.80
2023-07-05T18:31:37.221Z,8.50
2023-07-05T18:34:07.212Z,9.00
2023-07-05T18:36:36.875Z,10.50
2023-07-05T18:39:04.781Z,9.70
2023-07-05T18:41:35.480Z,9.30
2023-07-05T18:44:03.552Z,10.20
2023-07-05T18:46:31.622Z,12.20
2023-07-05T18:48:59.761Z,12.50
2023-07-05T18:51:27.917Z,10.50
2023-07-05T18:53:56.105Z,11.00
2023-07-05T18:56:25.899Z,12.90
2023-07-05T18:58:57.669Z,10.30
2023-07-05T19:01:29.452Z,9.80
2023-07-05T19:03:58.768Z,11.70
2023-07-05T19:06:29.619Z,14.80
2023-07-05T19:08:57.824Z,10.50
2023-07-05T19:11:29.539Z,11.20
2023-07-05T19:13:58.168Z,11.00
2023-07-05T19:16:27.605Z,10.70
2023-07-05T19:19:02.884Z,10.60
2023-07-05T19:21:30.984Z,10.50
2023-07-05T19:23:59.361Z,12.00
2023-07-05T19:26:28.380Z,11.20
2023-07-05T19:29:03.330Z,9.40
2023-07-05T19:31:33.521Z,9.30
2023-07-05T19:34:02.152Z,11.30
2023-07-05T19:36:30.343Z,11.10
2023-07-05T19:38:58.915Z,11.20
2023-07-05T19:41:27.229Z,11.40
2023-07-05T19:43:55.660Z,11.10
2023-07-05T19:46:27.615Z,11.00
2023-07-05T19:49:00.933Z,10.50
2023-07-05T19:51:34.935Z,10.50
2023-07-05T19:56:32.115Z,9.60
2023-07-05T19:59:01.545Z,10.90
2023-07-05T20:01:29.987Z,11.30
2023-07-05T20:03:59.428Z,10.90
2023-07-05T20:06:28.926Z,11.50
2023-07-05T20:08:58.691Z,11.30
2023-07-05T20:11:26.995Z,11.50
2023-07-05T20:13:56.254Z,11.20
2023-07-05T20:16:28.513Z,11.50
2023-07-05T20:18:56.912Z,12.80
2023-07-05T20:21:27.764Z,14.50
2023-07-05T20:23:57.009Z,12.00
2023-07-05T20:26:25.016Z,11.70
2023-07-05T20:28:55.788Z,10.60
2023-07-05T20:31:24.078Z,9.80
2023-07-05T20:33:51.986Z,10.50
2023-07-05T20:36:22.389Z,10.30
2023-07-05T20:38:50.457Z,10.60
2023-07-05T20:41:19.073Z,11.20
2023-07-05T20:43:47.598Z,11.10
2023-07-05T20:46:19.848Z,11.00
2023-07-05T20:48:54.918Z,11.50
2023-07-05T20:51:24.923Z,9.80
2023-07-05T20:53:52.932Z,10.50
2023-07-05T20:56:21.070Z,9.70
2023-07-05T20:58:49.262Z,10.10
2023-07-05T21:01:21.031Z,10.30
2023-07-05T21:03:54.156Z,11.40
2023-07-05T21:06:26.679Z,10.30
2023-07-05T21:08:54.833Z,11.40
2023-07-05T21:11:22.792Z,11.50
2023-07-05T21:13:51.086Z,11.30
2023-07-05T21:16:19.204Z,11.50
2023-07-05T21:18:48.003Z,11.20
2023-07-05T21:21:17.770Z,10.90
2023-07-05T21:23:46.226Z,10.40
2023-07-05T21:26:14.368Z,10.70
2023-07-05T21:28:44.829Z,9.80
2023-07-05T21:31:13.876Z,15.00
2023-07-05T21:33:42.135Z,11.60
2023-07-05T21:36:14.122Z,11.90
2023-07-05T21:38:42.307Z,10.40
2023-07-05T21:41:12.157Z,10.90
2023-07-05T21:43:41.810Z,10.70
2023-07-05T21:46:09.866Z,10.50
2023-07-05T21:48:39.300Z,11.20
2023-07-05T21:51:10.838Z,10.40
2023-07-05T21:53:41.112Z,9.30
2023-07-05T21:56:09.333Z,10.20
2023-07-05T21:58:37.713Z,10.00
2023-07-05T22:01:06.339Z,9.50
2023-07-05T22:03:36.867Z,10.90
2023-07-05T22:06:05.836Z,9.70
2023-07-05T22:08:34.008Z,10.00
2023-07-05T22:11:02.242Z,8.60
2023-07-05T22:13:32.860Z,6.40
2023-07-05T22:16:03.132Z,7.50
2023-07-05T22:18:34.395Z,6.70
2023-07-05T22:21:03.132Z,6.80
2023-07-05T22:23:31.397Z,5.40
2023-07-05T22:26:01.473Z,6.10
2023-07-05T22:28:29.668Z,6.00
2023-07-05T22:30:59.201Z,6.40
2023-07-05T22:33:28.600Z,5.90
2023-07-05T22:36:03.639Z,5.40
2023-07-05T22:38:32.350Z,5.80
2023-07-05T22:41:20.903Z,6.30
2023-07-05T22:43:52.752Z,6.30
2023-07-05T22:46:20.879Z,6.20
2023-07-05T22:48:56.121Z,5.90
2023-07-05T22:51:24.269Z,7.30
2023-07-05T22:53:52.384Z,7.60
2023-07-05T22:56:20.397Z,7.00
2023-07-05T22:58:50.929Z,6.00
2023-07-05T23:01:22.733Z,6.60
2023-07-05T23:03:50.977Z,6.40
2023-07-05T23:06:19.180Z,7.80
2023-07-05T23:08:47.264Z,7.00
2023-07-05T23:11:15.353Z,6.30
2023-07-05T23:13:45.242Z,7.00
2023-07-05T23:16:15.881Z,7.50
2023-07-05T23:18:48.358Z,7.00
2023-07-05T23:21:18.488Z,7.70
2023-07-05T23:23:50.830Z,7.10
2023-07-05T23:26:19.906Z,6.60
2023-07-05T23:28:48.784Z,7.20
2023-07-05T23:31:29.537Z,7.00
2023-07-05T23:33:59.111Z,7.50
2023-07-05T23:36:29.921Z,7.50
2023-07-05T23:39:06.315Z,7.20
2023-07-05T23:41:34.410Z,6.90
2023-07-05T23:44:02.606Z,7.10
2023-07-05T23:46:33.561Z,6.50
2023-07-05T23:49:05.253Z,7.00
2023-07-05T23:51:38.246Z,5.50
2023-07-05T23:54:10.312Z,5.50
2023-07-05T23:56:47.703Z,6.10
2023-07-05T23:59:17.840Z,5.70
